VOHY/HYD METAR and TAF weather

Enter ICAO airport designator
Station Type Date Time Source
VOHY METAR 2019/10/18 10:30 UTC NOAA

VOHY 181030Z 18004KT 5000 HZ SCT015 SCT025 BKN100 29/24 Q1013 TEMPO 6000


Station Type Date Time Source
VOHY Decoded METAR 2019/10/18 10:30 UTC NOAA

Hyderabad Airport, India (VOHY) 17-27N 078-28E 545M
Oct 18, 2019 - 06:30 AM EDT / 2019.10.18 1030 UTC
Wind: from the S (180 degrees) at 5 MPH (4 KT):0
Visibility: 3 mile(s):0
Sky conditions: mostly cloudy
Weather: haze
Temperature: 84 F (29 C)
Dew Point: 75 F (24 C)
Relative Humidity: 74%
Pressure (altimeter): 29.91 in. Hg (1013 hPa)
ob: VOHY 181030Z 18004KT 5000 HZ SCT015 SCT025 BKN100 29/24 Q1013 TEMPO 6000
cycle: 10

Station Type Date Time Source
VOHY TAF 2019/09/14 06:00 UTC NOAA

TAF VOHY 140500Z 1406/1415 29012KT 6000 FEW010 SCT015 BKN100
TEMPO 1406/1411 27012KT 5000 BR -DZ SCT010 SCT025 BKN080
TEMPO 1411/1415 24006KT 5000 DZ BR FEW010 SCT025 FEW030CB BKN090

Example: see airport list